createdAt,value
2019-01-23T00:02:10.800Z,-0.80
2019-01-23T00:04:39.209Z,-0.80
2019-01-23T00:07:07.618Z,-0.80
2019-01-23T00:09:36.051Z,-0.80
2019-01-23T00:12:04.724Z,-0.80
2019-01-23T00:14:33.468Z,-0.80
2019-01-23T00:17:01.876Z,-0.80
2019-01-23T00:19:30.281Z,-0.80
2019-01-23T00:21:58.705Z,-0.80
2019-01-23T00:24:27.105Z,-0.80
2019-01-23T00:26:55.522Z,-0.80
2019-01-23T00:29:23.968Z,-0.70
2019-01-23T00:31:52.345Z,-0.70
2019-01-23T00:34:20.748Z,-0.70
2019-01-23T00:36:49.282Z,-0.70
2019-01-23T00:39:17.685Z,-0.70
2019-01-23T00:41:46.097Z,-0.70
2019-01-23T00:44:14.789Z,-0.70
2019-01-23T00:46:43.192Z,-0.70
2019-01-23T00:49:11.593Z,-0.70
2019-01-23T00:51:40.061Z,-0.70
2019-01-23T00:54:08.634Z,-0.70
2019-01-23T00:56:37.036Z,-0.70
2019-01-23T00:59:05.621Z,-0.70
2019-01-23T01:01:34.456Z,-0.70
2019-01-23T01:04:03.237Z,-0.70
2019-01-23T01:06:31.662Z,-0.70
2019-01-23T01:09:00.059Z,-0.60
2019-01-23T01:11:28.468Z,-0.60
2019-01-23T01:13:56.918Z,-0.60
2019-01-23T01:16:25.320Z,-0.60
2019-01-23T01:18:53.722Z,-0.60
2019-01-23T01:21:22.424Z,-0.60
2019-01-23T01:23:50.820Z,-0.60
2019-01-23T01:26:19.257Z,-0.60
2019-01-23T01:28:47.706Z,-0.50
2019-01-23T01:31:16.123Z,-0.50
2019-01-23T01:33:44.528Z,-0.60
2019-01-23T01:36:12.964Z,-0.50
2019-01-23T01:38:41.680Z,-0.50
2019-01-23T01:41:10.149Z,-0.50
2019-01-23T01:43:38.668Z,-0.50
2019-01-23T01:46:07.069Z,-0.40
2019-01-23T01:48:35.464Z,-0.40
2019-01-23T01:51:03.970Z,-0.40
2019-01-23T01:53:32.365Z,-0.40
2019-01-23T01:56:00.766Z,-0.40
2019-01-23T01:58:29.537Z,-0.40
2019-01-23T02:00:57.940Z,-0.40
2019-01-23T02:03:26.346Z,-0.40
2019-01-23T02:05:54.784Z,-0.40
2019-01-23T02:08:23.195Z,-0.40
2019-01-23T02:10:51.598Z,-0.40
2019-01-23T02:13:20.021Z,-0.40
2019-01-23T02:15:48.425Z,-0.40
2019-01-23T02:18:16.820Z,-0.40
2019-01-23T02:20:45.259Z,-0.40
2019-01-23T02:23:13.663Z,-0.40
2019-01-23T02:25:42.063Z,-0.40
2019-01-23T02:28:10.497Z,-0.30
2019-01-23T02:30:38.898Z,-0.30
2019-01-23T02:33:07.469Z,-0.30
2019-01-23T02:35:35.894Z,-0.30
2019-01-23T02:38:04.561Z,-0.30
2019-01-23T02:40:32.960Z,-0.30
2019-01-23T02:43:01.402Z,-0.30
2019-01-23T02:45:29.804Z,-0.30
2019-01-23T02:47:58.219Z,-0.30
2019-01-23T02:50:26.632Z,-0.30
2019-01-23T02:52:55.057Z,-0.30
2019-01-23T02:55:23.457Z,-0.30
2019-01-23T02:57:51.858Z,-0.30
2019-01-23T03:00:20.720Z,-0.30
2019-01-23T03:02:49.262Z,-0.40
2019-01-23T03:05:19.176Z,-0.30
2019-01-23T03:07:47.746Z,-0.40
2019-01-23T03:10:18.084Z,-0.40
2019-01-23T03:12:46.617Z,-0.30
2019-01-23T03:15:16.504Z,-0.30
2019-01-23T03:17:45.052Z,-0.30
2019-01-23T03:20:15.992Z,-0.30
2019-01-23T03:22:44.407Z,-0.40
2019-01-23T03:25:13.661Z,-0.40
2019-01-23T03:27:42.160Z,-0.30
2019-01-23T03:30:18.905Z,-0.30
2019-01-23T03:32:47.477Z,-0.30
2019-01-23T03:35:16.249Z,-0.40
2019-01-23T03:37:44.765Z,-0.30
2019-01-23T03:40:15.893Z,-0.30
2019-01-23T03:42:44.288Z,-0.40
2019-01-23T03:45:14.252Z,-0.40
2019-01-23T03:47:42.768Z,-0.40
2019-01-23T03:50:13.937Z,-0.40
2019-01-23T03:52:42.342Z,-0.40
2019-01-23T03:55:12.275Z,-0.40
2019-01-23T03:57:40.702Z,-0.40
2019-01-23T04:00:14.364Z,-0.40
2019-01-23T04:02:43.029Z,-0.40
2019-01-23T04:05:11.992Z,-0.30
2019-01-23T04:07:40.396Z,-0.30
2019-01-23T04:10:11.539Z,-0.40
2019-01-23T04:12:39.967Z,-0.40
2019-01-23T04:15:10.524Z,-0.40
2019-01-23T04:17:40.469Z,-0.30
2019-01-23T04:20:12.207Z,-0.30
2019-01-23T04:22:41.758Z,-0.30
2019-01-23T04:25:10.595Z,-0.40
2019-01-23T04:27:41.873Z,-0.30
2019-01-23T04:30:16.196Z,-0.30
2019-01-23T04:32:44.612Z,-0.30
2019-01-23T04:35:13.304Z,-0.30
2019-01-23T04:37:42.783Z,-0.30
2019-01-23T04:40:13.408Z,-0.40
2019-01-23T04:42:41.814Z,-0.40
2019-01-23T04:45:13.115Z,-0.40
2019-01-23T04:47:41.565Z,-0.40
2019-01-23T04:50:12.379Z,-0.30
2019-01-23T04:52:48.037Z,-0.30
2019-01-23T04:55:16.478Z,-0.30
2019-01-23T04:57:44.878Z,-0.30
2019-01-23T05:00:15.589Z,-0.30
2019-01-23T05:02:44.007Z,-0.30
2019-01-23T05:05:12.632Z,-0.40
2019-01-23T05:07:41.091Z,-0.30
2019-01-23T05:10:09.607Z,-0.30
2019-01-23T05:12:38.008Z,-0.30
2019-01-23T05:15:09.197Z,-0.30
2019-01-23T05:17:37.592Z,-0.30
2019-01-23T05:20:14.942Z,-0.30
2019-01-23T05:22:43.351Z,-0.30
2019-01-23T05:25:12.488Z,-0.30
2019-01-23T05:27:41.088Z,-0.30
2019-01-23T05:30:15.628Z,-0.30
2019-01-23T05:32:44.032Z,-0.40
2019-01-23T05:35:12.700Z,-0.30
2019-01-23T05:37:41.100Z,-0.30
2019-01-23T05:40:10.140Z,-0.30
2019-01-23T05:42:38.568Z,-0.30
2019-01-23T05:45:10.672Z,-0.40
2019-01-23T05:47:39.140Z,-0.40
2019-01-23T05:50:11.012Z,-0.40
2019-01-23T05:52:39.451Z,-0.40
2019-01-23T05:55:09.535Z,-0.40
2019-01-23T05:57:38.737Z,-0.30
2019-01-23T06:00:19.356Z,-0.40
2019-01-23T06:02:47.883Z,-0.30
2019-01-23T06:05:16.913Z,-0.40
2019-01-23T06:07:45.308Z,-0.40
2019-01-23T06:10:14.171Z,-0.40
2019-01-23T06:12:42.575Z,-0.40
2019-01-23T06:15:13.377Z,-0.40
2019-01-23T06:17:41.806Z,-0.40
2019-01-23T06:20:18.742Z,-0.40
2019-01-23T06:22:47.242Z,-0.40
2019-01-23T06:25:15.657Z,-0.40
2019-01-23T06:27:44.123Z,-0.40
2019-01-23T06:30:18.602Z,-0.40
2019-01-23T06:32:47.024Z,-0.30
2019-01-23T06:35:15.958Z,-0.30
2019-01-23T06:37:44.430Z,-0.30
2019-01-23T06:40:14.865Z,-0.30
2019-01-23T06:42:43.465Z,-0.30
2019-01-23T06:45:13.804Z,-0.30
2019-01-23T06:47:42.278Z,-0.30
2019-01-23T06:50:13.804Z,-0.30
2019-01-23T06:52:42.253Z,-0.30
2019-01-23T06:55:11.488Z,-0.30
2019-01-23T06:57:39.916Z,-0.30
2019-01-23T07:00:19.790Z,-0.30
2019-01-23T07:02:48.390Z,-0.30
2019-01-23T07:05:17.032Z,-0.30
2019-01-23T07:07:45.428Z,-0.30
2019-01-23T07:10:19.600Z,-0.40
2019-01-23T07:12:48.220Z,-0.40
2019-01-23T07:15:16.856Z,-0.50
2019-01-23T07:17:45.276Z,-0.50
2019-01-23T07:20:21.604Z,-0.60
2019-01-23T07:22:50.041Z,-0.60
2019-01-23T07:25:18.611Z,-0.60
2019-01-23T07:27:47.088Z,-0.70
2019-01-23T07:30:24.576Z,-0.70
2019-01-23T07:32:53.084Z,-0.70
2019-01-23T07:35:21.485Z,-0.70
2019-01-23T07:37:49.961Z,-0.70
2019-01-23T07:40:18.428Z,-0.70
2019-01-23T07:42:46.822Z,-0.80
2019-01-23T07:45:18.417Z,-0.80
2019-01-23T07:47:46.935Z,-0.80
2019-01-23T07:50:15.706Z,-0.80
2019-01-23T07:52:44.477Z,-0.80
2019-01-23T07:55:15.435Z,-0.80
2019-01-23T07:57:43.841Z,-0.80
2019-01-23T08:00:17.738Z,-0.80
2019-01-23T08:02:46.476Z,-0.70
2019-01-23T08:05:19.484Z,-0.70
2019-01-23T08:07:48.812Z,-0.70
2019-01-23T08:10:18.823Z,-0.70
2019-01-23T08:12:47.496Z,-0.70
2019-01-23T08:15:18.905Z,-0.60
2019-01-23T08:17:47.377Z,-0.50
2019-01-23T08:20:18.528Z,-0.50
2019-01-23T08:22:47.019Z,-0.40
2019-01-23T08:25:15.756Z,-0.40
2019-01-23T08:27:44.180Z,-0.30
2019-01-23T08:30:15.883Z,-0.30
2019-01-23T08:32:44.282Z,-0.20
2019-01-23T08:35:13.421Z,-0.20
2019-01-23T08:37:41.855Z,-0.10
2019-01-23T08:40:15.338Z,-0.10
2019-01-23T08:42:43.968Z,0.00
2019-01-23T08:45:14.080Z,0.00
2019-01-23T08:47:42.477Z,0.10
2019-01-23T08:50:25.636Z,0.20
2019-01-23T08:52:54.102Z,0.20
2019-01-23T08:55:23.026Z,0.20
2019-01-23T08:57:51.577Z,0.30
2019-01-23T09:00:20.215Z,0.40
2019-01-23T09:02:48.624Z,0.50
2019-01-23T09:05:17.325Z,0.60
2019-01-23T09:07:46.005Z,0.70
2019-01-23T09:10:17.707Z,0.70
2019-01-23T09:12:46.487Z,0.70
2019-01-23T09:15:16.530Z,0.70
2019-01-23T09:17:45.030Z,0.70
2019-01-23T09:20:16.426Z,0.70
2019-01-23T09:22:44.844Z,0.80
2019-01-23T09:25:16.361Z,0.80
2019-01-23T09:27:44.876Z,0.90
2019-01-23T09:30:37.573Z,0.90
2019-01-23T09:33:24.412Z,0.90
2019-01-23T09:36:11.218Z,0.90
2019-01-23T09:38:42.840Z,0.80
2019-01-23T09:41:14.332Z,0.80
2019-01-23T09:44:15.964Z,0.80
2019-01-23T09:46:53.412Z,0.80
2019-01-23T09:49:25.828Z,0.90
2019-01-23T09:52:32.413Z,1.00
2019-01-23T09:55:00.793Z,1.00
2019-01-23T09:57:29.188Z,1.00
2019-01-23T09:59:57.625Z,1.10
2019-01-23T10:02:26.036Z,1.10
2019-01-23T10:04:54.521Z,1.10
2019-01-23T10:07:22.919Z,1.20
2019-01-23T10:09:51.309Z,1.30
2019-01-23T10:12:19.862Z,1.30
2019-01-23T10:14:48.433Z,1.40
2019-01-23T10:17:16.827Z,1.40
2019-01-23T10:19:45.252Z,1.50
2019-01-23T10:22:13.664Z,1.60
2019-01-23T10:24:42.066Z,1.70
2019-01-23T10:27:10.512Z,1.70
2019-01-23T10:29:38.923Z,1.70
2019-01-23T10:32:07.312Z,1.70
2019-01-23T10:34:35.775Z,1.70
2019-01-23T10:37:04.508Z,1.80
2019-01-23T10:39:32.911Z,1.80
2019-01-23T10:42:01.496Z,1.80
2019-01-23T10:44:29.903Z,1.90
2019-01-23T10:46:58.807Z,1.90
2019-01-23T10:49:27.202Z,2.00
2019-01-23T10:51:55.596Z,2.00
2019-01-23T10:54:24.028Z,2.10
2019-01-23T10:56:52.763Z,2.10
2019-01-23T10:59:21.189Z,2.20
2019-01-23T11:01:49.716Z,2.10
2019-01-23T11:04:18.141Z,2.10
2019-01-23T11:06:46.614Z,2.10
2019-01-23T11:09:15.275Z,2.20
2019-01-23T11:11:43.770Z,2.30
2019-01-23T11:14:12.267Z,2.40
2019-01-23T11:16:40.773Z,2.50
2019-01-23T11:19:09.164Z,2.50
2019-01-23T11:21:37.585Z,2.50
2019-01-23T11:24:05.980Z,2.60
2019-01-23T11:26:34.485Z,2.60
2019-01-23T11:29:02.879Z,2.70
2019-01-23T11:31:31.292Z,2.80
2019-01-23T11:33:59.717Z,2.90
2019-01-23T11:36:28.110Z,2.90
2019-01-23T11:38:56.502Z,2.90
2019-01-23T11:41:24.941Z,2.90
2019-01-23T11:43:53.328Z,2.90
2019-01-23T11:46:21.792Z,3.00
2019-01-23T11:48:50.335Z,3.00
2019-01-23T11:51:18.731Z,3.10
2019-01-23T11:53:47.123Z,3.10
2019-01-23T11:56:15.554Z,3.00
2019-01-23T11:58:43.956Z,2.90
2019-01-23T12:01:12.378Z,2.80
2019-01-23T12:03:41.090Z,2.80
2019-01-23T12:06:09.489Z,2.70
2019-01-23T12:08:37.884Z,2.70
2019-01-23T12:11:06.653Z,2.60
2019-01-23T12:13:35.040Z,2.50
2019-01-23T12:16:03.438Z,2.40
2019-01-23T12:18:31.876Z,2.40
2019-01-23T12:21:00.270Z,2.40
2019-01-23T12:23:28.661Z,2.30
2019-01-23T12:25:57.407Z,2.20
2019-01-23T12:28:25.805Z,2.20
2019-01-23T12:30:54.196Z,2.30
2019-01-23T12:33:22.644Z,2.30
2019-01-23T12:35:51.073Z,2.30
2019-01-23T12:38:19.468Z,2.20
2019-01-23T12:40:47.872Z,2.20
2019-01-23T12:43:16.276Z,2.20
2019-01-23T12:45:44.684Z,2.00
2019-01-23T12:48:13.112Z,2.00
2019-01-23T12:50:41.520Z,2.00
2019-01-23T12:53:09.981Z,2.00
2019-01-23T12:55:38.399Z,2.00
2019-01-23T12:58:06.795Z,2.00
2019-01-23T13:00:35.236Z,2.00
2019-01-23T13:03:03.796Z,2.20
2019-01-23T13:05:32.200Z,2.10
2019-01-23T13:08:00.639Z,2.20
2019-01-23T13:10:29.041Z,2.20
2019-01-23T13:12:57.439Z,2.30
2019-01-23T13:15:27.674Z,2.30
2019-01-23T13:17:56.503Z,2.30
2019-01-23T13:20:26.481Z,2.30
2019-01-23T13:22:55.129Z,2.30
2019-01-23T13:25:25.764Z,2.30
2019-01-23T13:27:54.624Z,2.30
2019-01-23T13:30:24.787Z,2.30
2019-01-23T13:32:53.565Z,2.30
2019-01-23T13:35:24.776Z,2.30
2019-01-23T13:37:53.181Z,2.30
2019-01-23T13:40:30.165Z,2.20
2019-01-23T13:42:58.559Z,2.20
2019-01-23T13:45:27.223Z,2.10
2019-01-23T13:47:55.927Z,2.10
2019-01-23T13:50:24.324Z,2.00
2019-01-23T13:52:52.712Z,2.00
2019-01-23T13:55:22.961Z,2.00
2019-01-23T13:57:51.363Z,2.00
2019-01-23T14:00:37.664Z,2.00
2019-01-23T14:03:06.599Z,2.00
2019-01-23T14:05:35.004Z,2.00
2019-01-23T14:08:04.785Z,2.00
2019-01-23T14:10:33.181Z,2.00
2019-01-23T14:13:01.604Z,1.90
2019-01-23T14:15:35.408Z,1.90
2019-01-23T14:18:04.914Z,1.80
2019-01-23T14:20:33.422Z,1.80
2019-01-23T14:23:01.900Z,1.80
2019-01-23T14:25:30.295Z,1.80
2019-01-23T14:27:58.944Z,1.70
2019-01-23T14:30:30.175Z,1.60
2019-01-23T14:32:58.745Z,1.60
2019-01-23T14:35:27.817Z,1.50
2019-01-23T14:38:00.518Z,1.50
2019-01-23T14:40:26.670Z,1.40
2019-01-23T14:42:55.092Z,1.40
2019-01-23T14:45:23.634Z,1.40
2019-01-23T14:47:52.134Z,1.40
2019-01-23T14:50:21.884Z,1.30
2019-01-23T14:52:50.346Z,1.30
2019-01-23T14:55:19.131Z,1.30
2019-01-23T14:57:47.766Z,1.30
2019-01-23T15:00:22.128Z,1.30
2019-01-23T15:02:50.558Z,1.20
2019-01-23T15:05:19.324Z,1.20
2019-01-23T15:07:47.948Z,1.10
2019-01-23T15:10:21.429Z,1.20
2019-01-23T15:12:49.826Z,1.10
2019-01-23T15:15:18.910Z,1.20
2019-01-23T15:17:47.467Z,1.20
2019-01-23T15:20:18.894Z,1.20
2019-01-23T15:22:47.299Z,1.20
2019-01-23T15:25:15.837Z,1.10
2019-01-23T15:27:44.240Z,1.10
2019-01-23T15:30:16.340Z,1.00
2019-01-23T15:32:44.736Z,0.90
2019-01-23T15:35:13.291Z,0.80
2019-01-23T15:37:41.745Z,0.70
2019-01-23T15:40:18.819Z,0.60
2019-01-23T15:42:47.427Z,0.50
2019-01-23T15:45:15.830Z,0.50
2019-01-23T15:47:44.632Z,0.40
2019-01-23T15:50:16.176Z,0.40
2019-01-23T15:52:44.572Z,0.40
2019-01-23T15:55:15.760Z,0.30
2019-01-23T15:57:44.157Z,0.30
2019-01-23T16:00:20.969Z,0.30
2019-01-23T16:02:49.500Z,0.20
2019-01-23T16:05:17.906Z,0.20
2019-01-23T16:07:46.301Z,0.20
2019-01-23T16:10:17.649Z,0.30
2019-01-23T16:12:46.036Z,0.40
2019-01-23T16:15:17.273Z,0.40
2019-01-23T16:17:45.778Z,0.40
2019-01-23T16:20:14.749Z,0.30
2019-01-23T16:22:43.384Z,0.40
2019-01-23T16:25:14.693Z,0.40
2019-01-23T16:27:43.353Z,0.40
2019-01-23T16:30:26.664Z,0.40
2019-01-23T16:32:55.288Z,0.40
2019-01-23T16:35:23.681Z,0.40
2019-01-23T16:37:52.344Z,0.40
2019-01-23T16:40:20.948Z,0.40
2019-01-23T16:42:49.650Z,0.40
2019-01-23T16:45:19.882Z,0.40
2019-01-23T16:47:48.526Z,0.40
2019-01-23T16:50:22.696Z,0.40
2019-01-23T16:52:51.080Z,0.40
2019-01-23T16:55:19.678Z,0.40
2019-01-23T16:57:48.760Z,0.30
2019-01-23T17:00:19.868Z,0.30
2019-01-23T17:02:48.413Z,0.30
2019-01-23T17:05:20.073Z,0.30
2019-01-23T17:07:48.536Z,0.30
2019-01-23T17:10:19.436Z,0.40
2019-01-23T17:12:47.877Z,0.30
2019-01-23T17:15:16.449Z,0.40
2019-01-23T17:17:44.907Z,0.40
2019-01-23T17:20:24.750Z,0.40
2019-01-23T17:22:53.196Z,0.40
2019-01-23T17:25:21.656Z,0.40
2019-01-23T17:27:50.092Z,0.40
2019-01-23T17:30:19.820Z,0.40
2019-01-23T17:32:48.293Z,0.40
2019-01-23T17:35:20.795Z,0.30
2019-01-23T17:37:49.352Z,0.30
2019-01-23T17:40:22.885Z,0.30
2019-01-23T17:42:51.318Z,0.30
2019-01-23T17:45:28.440Z,0.20
2019-01-23T17:47:56.944Z,0.20
2019-01-23T17:50:25.508Z,0.20
2019-01-23T17:52:53.903Z,0.20
2019-01-23T17:55:31.080Z,0.10
2019-01-23T17:57:59.481Z,0.10
2019-01-23T18:00:31.353Z,0.10
2019-01-23T18:03:00.345Z,0.10
2019-01-23T18:05:28.748Z,0.20
2019-01-23T18:07:57.140Z,0.20
2019-01-23T18:10:25.941Z,0.20
2019-01-23T18:12:54.336Z,0.30
2019-01-23T18:15:31.598Z,0.30
2019-01-23T18:18:00.060Z,0.30
2019-01-23T18:20:29.601Z,0.30
2019-01-23T18:22:58.105Z,0.30
2019-01-23T18:25:26.665Z,0.30
2019-01-23T18:27:55.056Z,0.30
2019-01-23T18:30:53.136Z,0.30
2019-01-23T18:33:24.644Z,0.40
2019-01-23T18:36:08.086Z,0.30
2019-01-23T18:38:39.548Z,0.40
2019-01-23T18:41:26.060Z,0.30
2019-01-23T18:44:09.568Z,0.30
2019-01-23T18:46:57.599Z,0.30
2019-01-23T18:49:52.519Z,0.30
2019-01-23T18:52:20.918Z,0.30
2019-01-23T18:54:49.370Z,0.20
2019-01-23T18:57:29.569Z,0.20
2019-01-23T18:59:59.386Z,0.30
2019-01-23T19:02:28.044Z,0.20
2019-01-23T19:04:56.486Z,0.20
2019-01-23T19:07:24.884Z,0.20
2019-01-23T19:09:53.276Z,0.10
2019-01-23T19:12:21.704Z,0.10
2019-01-23T19:14:50.099Z,0.10
2019-01-23T19:17:18.570Z,0.10
2019-01-23T19:19:47.016Z,0.10
2019-01-23T19:22:15.409Z,0.10
2019-01-23T19:24:43.837Z,0.10
2019-01-23T19:27:12.528Z,0.20
2019-01-23T19:29:40.920Z,0.20
2019-01-23T19:32:09.318Z,0.20
2019-01-23T19:34:37.805Z,0.20
2019-01-23T19:37:06.458Z,0.10
2019-01-23T19:39:34.840Z,0.10
2019-01-23T19:42:03.288Z,0.10
2019-01-23T19:44:31.680Z,0.10
2019-01-23T19:47:00.075Z,0.10
2019-01-23T19:49:28.512Z,0.20
2019-01-23T19:51:56.907Z,0.20
2019-01-23T19:54:25.306Z,0.20
2019-01-23T19:56:53.743Z,0.20
2019-01-23T19:59:22.145Z,0.10
2019-01-23T20:01:50.540Z,0.00
2019-01-23T20:04:18.990Z,-0.10
2019-01-23T20:06:47.385Z,0.00
2019-01-23T20:09:15.784Z,0.00
2019-01-23T20:11:44.220Z,0.00
2019-01-23T20:14:12.804Z,0.00
2019-01-23T20:16:41.214Z,0.00
2019-01-23T20:19:10.214Z,0.00
2019-01-23T20:21:38.607Z,0.00
2019-01-23T20:24:07.000Z,0.00
2019-01-23T20:26:35.440Z,0.00
2019-01-23T20:29:04.369Z,0.00
2019-01-23T20:31:32.763Z,0.00
2019-01-23T20:34:01.192Z,0.10
2019-01-23T20:36:29.588Z,0.10
2019-01-23T20:38:58.028Z,0.10
2019-01-23T20:41:26.428Z,0.10
2019-01-23T20:43:54.820Z,0.10
2019-01-23T20:46:23.291Z,0.10
2019-01-23T20:48:51.660Z,0.10
2019-01-23T20:51:20.056Z,0.00
2019-01-23T20:53:48.633Z,0.00
2019-01-23T20:56:17.059Z,0.00
2019-01-23T20:58:45.456Z,0.00
2019-01-23T21:01:13.889Z,0.00
2019-01-23T21:03:42.281Z,0.00
2019-01-23T21:06:10.759Z,0.00
2019-01-23T21:08:39.197Z,-0.10
2019-01-23T21:11:07.592Z,-0.10
2019-01-23T21:13:36.049Z,-0.10
2019-01-23T21:16:04.553Z,-0.10
2019-01-23T21:18:32.948Z,-0.10
2019-01-23T21:21:01.349Z,-0.10
2019-01-23T21:23:29.780Z,0.00
2019-01-23T21:25:58.178Z,0.00
2019-01-23T21:28:26.577Z,0.00
2019-01-23T21:30:55.005Z,0.00
2019-01-23T21:33:23.423Z,-0.10
2019-01-23T21:35:51.890Z,0.00
2019-01-23T21:38:20.338Z,0.00
2019-01-23T21:40:48.736Z,0.00
2019-01-23T21:43:17.158Z,0.00
2019-01-23T21:45:45.572Z,-0.10
2019-01-23T21:48:13.968Z,0.00
2019-01-23T21:50:42.364Z,0.00
2019-01-23T21:53:10.806Z,0.00
2019-01-23T21:55:39.220Z,0.00
2019-01-23T21:58:07.620Z,0.00
2019-01-23T22:00:41.625Z,0.00
2019-01-23T22:03:11.157Z,0.00
2019-01-23T22:05:39.732Z,0.00
2019-01-23T22:08:08.381Z,0.00
2019-01-23T22:10:36.780Z,0.00
2019-01-23T22:13:05.262Z,0.00
2019-01-23T22:15:34.211Z,0.00
2019-01-23T22:18:02.768Z,0.00
2019-01-23T22:20:31.160Z,0.00
2019-01-23T22:22:59.597Z,0.00
2019-01-23T22:25:28.074Z,0.00
2019-01-23T22:27:56.501Z,0.00
2019-01-23T22:30:27.608Z,0.00
2019-01-23T22:32:56.078Z,0.00
2019-01-23T22:35:24.503Z,0.00
2019-01-23T22:37:52.896Z,0.00
2019-01-23T22:40:21.453Z,0.10
2019-01-23T22:42:49.884Z,0.10
2019-01-23T22:45:20.218Z,0.00
2019-01-23T22:47:48.607Z,0.00
2019-01-23T22:50:22.803Z,-0.10
2019-01-23T22:52:51.476Z,-0.10
2019-01-23T22:55:19.944Z,-0.10
2019-01-23T22:57:48.579Z,0.00
2019-01-23T23:00:26.313Z,0.00
2019-01-23T23:02:54.732Z,-0.10
2019-01-23T23:05:23.111Z,0.00
2019-01-23T23:07:51.717Z,0.00
2019-01-23T23:10:20.244Z,0.00
2019-01-23T23:12:48.639Z,0.00
2019-01-23T23:15:17.496Z,-0.10
2019-01-23T23:17:45.908Z,-0.10
2019-01-23T23:20:14.298Z,-0.10
2019-01-23T23:22:42.996Z,-0.10
2019-01-23T23:25:11.561Z,-0.10
2019-01-23T23:27:39.953Z,0.00
2019-01-23T23:30:14.205Z,0.00
2019-01-23T23:32:42.614Z,-0.10
2019-01-23T23:35:11.032Z,-0.10
2019-01-23T23:37:39.445Z,-0.20
2019-01-23T23:40:12.854Z,-0.20
2019-01-23T23:42:41.293Z,-0.20
2019-01-23T23:45:13.128Z,-0.20
2019-01-23T23:47:41.528Z,-0.20
2019-01-23T23:50:12.909Z,-0.20
2019-01-23T23:52:41.390Z,-0.20
2019-01-23T23:55:11.356Z,-0.30
2019-01-23T23:57:40.152Z,-0.30
